Burlington, Michigan
Current Conditions -  °F | °C
As of 8:14 AM on Thursday 18 Dec 2014 (Local Time) from KRMY Reporting Station
Overcast Overcast  
Wind Chill: 28°   Ceiling: 2500
Heat Index: 28°   Visibility: 10mi
Dew Point: 24°   Wind: 3mph
Humidity: 84%   Direction: 250°WSW
Pressure: 30.19"   Gusts: NA
Location:  42.11°N, 85.08°W
Report Text: KRMY 181314Z AUTO 25003KT 10SM OVC025 M02/M05 A3019 RMK AO2 T10221046
Loading
Personal Weather Stations






























Interactive Weather Map New forecast layout! Learn more

10-Day Weather Forecast

Advertisements
Track Severe Weather on mobile